createdAt,value
2023-06-21T00:00:00.683Z,28.47
2023-06-21T00:02:29.927Z,28.48
2023-06-21T00:04:59.576Z,28.46
2023-06-21T00:07:26.379Z,28.45
2023-06-21T00:09:53.657Z,28.43
2023-06-21T00:12:21.483Z,28.42
2023-06-21T00:14:48.287Z,28.42
2023-06-21T00:17:15.059Z,28.40
2023-06-21T00:19:41.817Z,28.39
2023-06-21T00:22:08.741Z,28.39
2023-06-21T00:24:35.655Z,28.38
2023-06-21T00:27:02.624Z,28.37
2023-06-21T00:29:29.716Z,28.35
2023-06-21T00:31:56.496Z,28.37
2023-06-21T00:34:23.309Z,28.38
2023-06-21T00:36:50.074Z,28.35
2023-06-21T00:39:17.460Z,28.31
2023-06-21T00:41:44.356Z,28.28
2023-06-21T00:44:11.285Z,28.26
2023-06-21T00:46:38.322Z,28.28
2023-06-21T00:49:05.633Z,28.29
2023-06-21T00:51:34.237Z,28.27
2023-06-21T00:54:01.461Z,28.27
2023-06-21T00:56:28.324Z,28.25
2023-06-21T00:58:57.003Z,28.25
2023-06-21T01:01:24.062Z,28.22
2023-06-21T01:03:51.053Z,28.20
2023-06-21T01:06:39.119Z,28.22
2023-06-21T01:09:42.251Z,28.23
2023-06-21T01:12:24.267Z,28.22
2023-06-21T01:14:53.855Z,28.20
2023-06-21T01:17:21.727Z,28.17
2023-06-21T01:19:57.214Z,28.19
2023-06-21T01:22:25.629Z,28.18
2023-06-21T01:25:29.346Z,28.15
2023-06-21T01:28:34.605Z,28.11
2023-06-21T01:31:02.747Z,28.12
2023-06-21T01:33:30.500Z,28.11
2023-06-21T01:35:57.471Z,28.05
2023-06-21T01:38:25.702Z,28.06
2023-06-21T01:40:52.501Z,28.05
2023-06-21T01:43:20.097Z,28.07
2023-06-21T01:45:47.710Z,28.08
2023-06-21T01:48:15.618Z,28.06
2023-06-21T01:50:43.785Z,28.05
2023-06-21T01:53:15.204Z,28.04
2023-06-21T01:55:45.798Z,28.04
2023-06-21T01:58:14.014Z,28.02
2023-06-21T02:00:42.040Z,28.01
2023-06-21T02:03:11.306Z,28.00
2023-06-21T02:05:38.988Z,27.97
2023-06-21T02:08:06.740Z,27.97
2023-06-21T02:10:33.699Z,27.96
2023-06-21T02:13:00.507Z,27.94
2023-06-21T02:15:27.344Z,27.95
2023-06-21T02:17:54.129Z,27.94
2023-06-21T02:20:23.752Z,27.93
2023-06-21T02:22:51.077Z,27.90
2023-06-21T02:25:18.023Z,27.89
2023-06-21T02:27:45.193Z,27.88
2023-06-21T02:30:12.297Z,27.85
2023-06-21T02:32:39.448Z,27.83
2023-06-21T02:35:07.233Z,27.80
2023-06-21T02:37:34.087Z,27.82
2023-06-21T02:40:06.957Z,27.81
2023-06-21T02:42:33.773Z,27.81
2023-06-21T02:45:00.629Z,27.80
2023-06-21T02:47:27.429Z,27.77
2023-06-21T02:49:54.249Z,27.77
2023-06-21T02:52:21.023Z,27.78
2023-06-21T02:54:47.797Z,27.76
2023-06-21T02:57:14.666Z,27.75
2023-06-21T02:59:41.455Z,27.75
2023-06-21T03:02:08.373Z,27.74
2023-06-21T03:04:35.165Z,27.72
2023-06-21T03:07:02.676Z,27.72
2023-06-21T03:09:30.086Z,27.70
2023-06-21T03:11:56.995Z,27.70
2023-06-21T03:14:23.808Z,27.67
2023-06-21T03:16:51.121Z,27.65
2023-06-21T03:19:19.412Z,27.65
2023-06-21T03:21:46.960Z,27.67
2023-06-21T03:24:13.942Z,27.64
2023-06-21T03:26:40.739Z,27.66
2023-06-21T03:29:08.086Z,27.63
2023-06-21T03:31:35.866Z,27.63
2023-06-21T03:34:02.732Z,27.63
2023-06-21T03:36:29.952Z,27.61
2023-06-21T03:38:57.153Z,27.59
2023-06-21T03:41:23.929Z,27.60
2023-06-21T03:43:51.146Z,27.59
2023-06-21T03:46:19.472Z,27.57
2023-06-21T03:48:46.313Z,27.58
2023-06-21T03:51:13.101Z,27.56
2023-06-21T03:53:39.905Z,27.57
2023-06-21T03:56:06.746Z,27.56
2023-06-21T03:58:33.493Z,27.53
2023-06-21T04:01:00.273Z,27.54
2023-06-21T04:03:27.707Z,27.50
2023-06-21T04:05:54.497Z,27.55
2023-06-21T04:08:21.252Z,27.59
2023-06-21T04:10:48.083Z,27.57
2023-06-21T04:13:14.966Z,27.55
2023-06-21T04:15:41.986Z,27.56
2023-06-21T04:18:08.854Z,27.58
2023-06-21T04:20:35.709Z,27.57
2023-06-21T04:23:02.581Z,27.55
2023-06-21T04:25:29.362Z,27.54
2023-06-21T04:27:56.203Z,27.53
2023-06-21T04:30:23.202Z,27.48
2023-06-21T04:32:50.099Z,25.48
2023-06-21T04:35:18.418Z,25.61
2023-06-21T04:37:46.886Z,24.52
2023-06-21T04:40:18.553Z,24.81
2023-06-21T04:42:47.433Z,24.89
2023-06-21T04:45:16.353Z,24.98
2023-06-21T04:47:49.457Z,24.93
2023-06-21T04:50:21.660Z,25.27
2023-06-21T04:52:51.128Z,24.84
2023-06-21T04:55:19.726Z,24.74
2023-06-21T04:57:50.028Z,24.78
2023-06-21T05:00:18.334Z,24.17
2023-06-21T05:02:45.483Z,24.26
2023-06-21T05:05:12.396Z,23.26
2023-06-21T05:07:40.363Z,23.98
2023-06-21T05:10:09.178Z,23.44
2023-06-21T05:12:39.354Z,24.22
2023-06-21T05:15:07.541Z,24.38
2023-06-21T05:17:35.837Z,24.74
2023-06-21T05:20:06.461Z,24.79
2023-06-21T05:22:33.398Z,24.37
2023-06-21T05:25:03.189Z,24.51
2023-06-21T05:27:30.730Z,24.58
2023-06-21T05:29:57.576Z,24.68
2023-06-21T05:32:27.250Z,24.33
2023-06-21T05:34:55.125Z,23.90
2023-06-21T05:37:23.545Z,23.87
2023-06-21T05:39:50.664Z,24.20
2023-06-21T05:42:17.532Z,24.55
2023-06-21T05:44:44.368Z,24.14
2023-06-21T05:47:11.170Z,24.44
2023-06-21T05:49:37.976Z,24.12
2023-06-21T05:52:05.060Z,23.95
2023-06-21T05:54:31.794Z,24.62
2023-06-21T05:56:58.604Z,24.68
2023-06-21T05:59:25.371Z,24.69
2023-06-21T06:01:52.189Z,24.71
2023-06-21T06:04:19.130Z,24.76
2023-06-21T06:06:46.139Z,24.18
2023-06-21T06:09:13.867Z,24.18
2023-06-21T06:11:40.612Z,24.09
2023-06-21T06:14:07.445Z,24.67
2023-06-21T06:16:34.246Z,24.24
2023-06-21T06:19:01.147Z,24.47
2023-06-21T06:21:27.951Z,24.09
2023-06-21T06:23:55.092Z,24.20
2023-06-21T06:26:24.461Z,24.43
2023-06-21T06:28:52.275Z,24.31
2023-06-21T06:31:21.613Z,24.85
2023-06-21T06:33:48.585Z,24.93
2023-06-21T06:36:15.415Z,24.97
2023-06-21T06:38:42.328Z,24.85
2023-06-21T06:41:09.369Z,24.97
2023-06-21T06:43:36.132Z,24.65
2023-06-21T06:46:02.902Z,24.71
2023-06-21T06:48:30.171Z,24.85
2023-06-21T06:50:57.048Z,24.51
2023-06-21T06:53:23.962Z,24.35
2023-06-21T06:55:52.806Z,24.49
2023-06-21T06:58:21.011Z,24.60
2023-06-21T07:00:47.997Z,24.92
2023-06-21T07:03:15.144Z,25.20
2023-06-21T07:05:47.422Z,25.14
2023-06-21T07:08:14.738Z,25.18
2023-06-21T07:10:42.143Z,25.10
2023-06-21T07:13:08.966Z,25.15
2023-06-21T07:15:35.807Z,25.10
2023-06-21T07:18:02.749Z,25.05
2023-06-21T07:20:29.975Z,24.98
2023-06-21T07:22:58.150Z,24.97
2023-06-21T07:25:25.198Z,24.99
2023-06-21T07:27:51.974Z,25.10
2023-06-21T07:30:21.683Z,25.34
2023-06-21T07:32:49.176Z,24.83
2023-06-21T07:35:17.606Z,25.02
2023-06-21T07:37:47.271Z,25.15
2023-06-21T07:40:14.878Z,25.15
2023-06-21T07:42:42.139Z,25.51
2023-06-21T07:45:10.205Z,25.63
2023-06-21T07:47:37.257Z,25.43
2023-06-21T07:50:21.317Z,25.27
2023-06-21T07:52:49.952Z,25.33
2023-06-21T07:55:17.206Z,25.61
2023-06-21T07:57:44.901Z,25.75
2023-06-21T08:00:13.989Z,25.83
2023-06-21T08:02:42.974Z,25.84
2023-06-21T08:05:10.009Z,25.75
2023-06-21T08:07:37.094Z,25.89
2023-06-21T08:10:04.621Z,25.96
2023-06-21T08:12:31.489Z,25.97
2023-06-21T08:14:58.269Z,25.85
2023-06-21T08:17:25.065Z,25.76
2023-06-21T08:19:51.957Z,25.89
2023-06-21T08:22:19.020Z,26.08
2023-06-21T08:24:46.240Z,26.16
2023-06-21T08:27:13.116Z,26.16
2023-06-21T08:29:39.967Z,26.34
2023-06-21T08:32:07.399Z,26.27
2023-06-21T08:34:34.262Z,26.21
2023-06-21T08:37:01.500Z,26.06
2023-06-21T08:39:30.558Z,26.40
2023-06-21T08:41:59.198Z,26.66
2023-06-21T08:44:26.027Z,26.66
2023-06-21T08:46:53.027Z,26.87
2023-06-21T08:49:22.296Z,27.03
2023-06-21T08:51:49.865Z,27.04
2023-06-21T08:54:24.447Z,27.08
2023-06-21T08:57:04.581Z,27.16
2023-06-21T09:00:02.485Z,27.05
2023-06-21T09:02:51.174Z,26.86
2023-06-21T09:05:27.043Z,26.76
2023-06-21T09:07:54.486Z,26.75
2023-06-21T09:10:22.686Z,26.77
2023-06-21T09:12:51.935Z,26.75
2023-06-21T09:15:19.533Z,26.78
2023-06-21T09:17:47.805Z,26.79
2023-06-21T09:20:14.728Z,26.81
2023-06-21T09:22:42.194Z,26.82
2023-06-21T09:25:09.356Z,26.82
2023-06-21T09:27:36.162Z,26.84
2023-06-21T09:30:11.767Z,26.83
2023-06-21T09:32:50.710Z,26.85
2023-06-21T09:35:17.806Z,26.87
2023-06-21T09:37:45.913Z,26.89
2023-06-21T09:40:14.830Z,26.92
2023-06-21T09:42:42.787Z,26.94
2023-06-21T09:45:13.860Z,26.95
2023-06-21T09:47:43.908Z,26.94
2023-06-21T09:50:11.742Z,26.94
2023-06-21T09:52:43.721Z,26.98
2023-06-21T09:55:14.699Z,27.01
2023-06-21T09:57:41.510Z,27.05
2023-06-21T10:00:08.921Z,27.07
2023-06-21T10:02:40.845Z,27.09
2023-06-21T10:05:21.232Z,27.11
2023-06-21T10:07:49.150Z,27.13
2023-06-21T10:10:15.948Z,27.14
2023-06-21T10:12:55.355Z,27.15
2023-06-21T10:15:23.385Z,27.17
2023-06-21T10:18:00.037Z,27.17
2023-06-21T10:20:32.552Z,27.16
2023-06-21T10:23:02.672Z,27.17
2023-06-21T10:25:30.496Z,27.19
2023-06-21T10:28:01.230Z,27.19
2023-06-21T10:30:29.286Z,27.21
2023-06-21T10:32:59.082Z,27.21
2023-06-21T10:35:28.945Z,27.20
2023-06-21T10:38:09.149Z,27.15
2023-06-21T10:40:37.162Z,27.11
2023-06-21T10:43:04.318Z,27.04
2023-06-21T10:45:34.711Z,27.01
2023-06-21T10:48:02.028Z,27.00
2023-06-21T10:50:29.293Z,27.04
2023-06-21T10:52:58.748Z,27.07
2023-06-21T10:55:25.797Z,27.09
2023-06-21T10:57:54.585Z,27.09
2023-06-21T11:00:28.522Z,27.09
2023-06-21T11:02:56.179Z,27.10
2023-06-21T11:05:25.214Z,27.09
2023-06-21T11:07:58.025Z,27.08
2023-06-21T11:10:32.838Z,27.07
2023-06-21T11:13:00.499Z,27.07
2023-06-21T11:15:27.912Z,26.93
2023-06-21T11:18:01.957Z,24.97
2023-06-21T11:20:33.101Z,24.72
2023-06-21T11:23:02.287Z,23.88
2023-06-21T11:25:29.594Z,24.37
2023-06-21T11:28:15.684Z,24.10
2023-06-21T11:31:08.928Z,23.90
2023-06-21T11:34:06.053Z,23.34
2023-06-21T11:36:36.348Z,23.13
2023-06-21T11:39:03.181Z,23.41
2023-06-21T11:41:41.818Z,23.04
2023-06-21T11:44:10.087Z,23.78
2023-06-21T11:46:37.733Z,24.56
2023-06-21T11:49:05.192Z,24.66
2023-06-21T11:51:35.467Z,23.97
2023-06-21T11:54:02.922Z,24.29
2023-06-21T11:56:31.759Z,23.85
2023-06-21T11:58:59.612Z,24.02
2023-06-21T12:01:27.000Z,23.68
2023-06-21T12:04:00.673Z,23.64
2023-06-21T12:06:29.978Z,23.34
2023-06-21T12:08:58.687Z,23.69
2023-06-21T12:11:28.484Z,22.92
2023-06-21T12:13:55.715Z,23.84
2023-06-21T12:16:27.292Z,24.27
2023-06-21T12:18:54.134Z,23.31
2023-06-21T12:21:21.057Z,23.52
2023-06-21T12:23:47.978Z,23.05
2023-06-21T12:26:18.990Z,22.78
2023-06-21T12:28:47.846Z,23.40
2023-06-21T12:31:17.793Z,23.22
2023-06-21T12:33:45.499Z,23.69
2023-06-21T12:36:26.812Z,23.95
2023-06-21T12:39:02.810Z,23.60
2023-06-21T12:41:32.033Z,24.04
2023-06-21T12:44:04.468Z,23.99
2023-06-21T12:46:39.477Z,23.99
2023-06-21T12:49:06.588Z,24.29
2023-06-21T12:51:36.943Z,23.96
2023-06-21T12:54:09.212Z,24.04
2023-06-21T12:56:40.960Z,23.85
2023-06-21T12:59:08.603Z,23.82
2023-06-21T13:01:37.828Z,23.95
2023-06-21T13:04:09.620Z,24.27
2023-06-21T13:06:37.043Z,23.95
2023-06-21T13:09:04.755Z,23.86
2023-06-21T13:11:32.803Z,24.03
2023-06-21T13:13:59.777Z,24.68
2023-06-21T13:16:26.646Z,24.87
2023-06-21T13:18:54.999Z,24.84
2023-06-21T13:21:29.327Z,25.10
2023-06-21T13:23:58.222Z,24.91
2023-06-21T13:26:25.241Z,25.06
2023-06-21T13:28:52.332Z,25.25
2023-06-21T13:31:22.551Z,25.29
2023-06-21T13:33:50.784Z,25.41
2023-06-21T13:36:17.754Z,25.64
2023-06-21T13:38:44.705Z,24.56
2023-06-21T13:41:11.615Z,24.80
2023-06-21T13:43:38.828Z,24.72
2023-06-21T13:46:06.050Z,24.50
2023-06-21T13:48:33.117Z,25.85
2023-06-21T13:51:00.170Z,26.05
2023-06-21T13:53:28.499Z,26.26
2023-06-21T13:55:55.732Z,26.35
2023-06-21T13:58:23.527Z,26.06
2023-06-21T14:00:50.623Z,25.72
2023-06-21T14:03:17.613Z,25.76
2023-06-21T14:05:44.826Z,26.16
2023-06-21T14:08:11.636Z,26.44
2023-06-21T14:10:38.546Z,29.35
2023-06-21T14:13:05.374Z,29.30
2023-06-21T14:15:32.240Z,30.18
2023-06-21T14:18:04.394Z,30.25
2023-06-21T14:20:32.140Z,32.07
2023-06-21T14:22:59.672Z,31.75
2023-06-21T14:25:26.584Z,29.46
2023-06-21T14:27:53.471Z,30.64
2023-06-21T14:30:20.329Z,28.78
2023-06-21T14:32:48.717Z,28.68
2023-06-21T14:35:15.910Z,29.13
2023-06-21T14:37:45.274Z,28.31
2023-06-21T14:40:12.291Z,29.21
2023-06-21T14:42:39.173Z,30.48
2023-06-21T14:45:06.490Z,28.99
2023-06-21T14:47:33.782Z,29.22
2023-06-21T14:50:04.163Z,31.32
2023-06-21T14:52:32.210Z,29.97
2023-06-21T14:54:59.221Z,28.23
2023-06-21T14:57:26.077Z,30.73
2023-06-21T14:59:53.635Z,29.01
2023-06-21T15:02:20.597Z,30.25
2023-06-21T15:04:47.453Z,30.23
2023-06-21T15:07:19.481Z,29.95
2023-06-21T15:09:47.169Z,30.09
2023-06-21T15:12:14.043Z,30.16
2023-06-21T15:17:08.341Z,29.30
2023-06-21T15:19:35.322Z,30.87
2023-06-21T15:22:02.336Z,30.92
2023-06-21T15:24:29.237Z,33.66
2023-06-21T15:26:56.099Z,31.23
2023-06-21T15:29:23.101Z,30.73
2023-06-21T15:31:49.962Z,30.64
2023-06-21T15:34:17.039Z,32.72
2023-06-21T15:36:44.488Z,32.89
2023-06-21T15:39:11.350Z,32.39
2023-06-21T15:41:38.490Z,31.32
2023-06-21T15:44:06.456Z,32.53
2023-06-21T15:46:34.704Z,29.92
2023-06-21T15:49:02.083Z,29.64
2023-06-21T15:51:29.162Z,30.74
2023-06-21T15:53:57.455Z,30.56
2023-06-21T15:56:25.933Z,29.96
2023-06-21T15:58:53.293Z,28.30
2023-06-21T16:01:21.484Z,29.06
2023-06-21T16:03:49.477Z,29.89
2023-06-21T16:06:16.944Z,29.67
2023-06-21T16:08:43.989Z,28.07
2023-06-21T16:11:12.869Z,26.60
2023-06-21T16:13:47.135Z,27.00
2023-06-21T16:16:15.992Z,27.32
2023-06-21T16:18:43.001Z,27.66
2023-06-21T16:21:09.939Z,28.13
2023-06-21T16:23:36.938Z,28.59
2023-06-21T16:26:03.979Z,29.87
2023-06-21T16:28:31.505Z,28.99
2023-06-21T16:30:58.556Z,27.53
2023-06-21T16:33:25.458Z,27.72
2023-06-21T16:35:52.418Z,29.24
2023-06-21T16:38:20.348Z,28.12
2023-06-21T16:40:47.622Z,28.06
2023-06-21T16:43:18.114Z,29.02
2023-06-21T16:45:45.412Z,29.07
2023-06-21T16:48:12.482Z,27.47
2023-06-21T16:50:39.658Z,27.69
2023-06-21T16:53:06.556Z,27.77
2023-06-21T16:55:33.553Z,27.41
2023-06-21T16:58:00.677Z,27.58
2023-06-21T17:00:28.597Z,27.88
2023-06-21T17:02:56.962Z,27.70
2023-06-21T17:05:24.588Z,27.55
2023-06-21T17:07:52.380Z,27.01
2023-06-21T17:10:20.592Z,26.90
2023-06-21T17:12:47.828Z,26.91
2023-06-21T17:15:15.017Z,26.67
2023-06-21T17:17:43.249Z,27.14
2023-06-21T17:20:10.725Z,27.10
2023-06-21T17:22:37.762Z,26.77
2023-06-21T17:25:05.520Z,26.55
2023-06-21T17:27:32.382Z,26.58
2023-06-21T17:29:59.571Z,26.38
2023-06-21T17:32:26.888Z,26.35
2023-06-21T17:34:54.249Z,26.54
2023-06-21T17:37:21.071Z,26.26
2023-06-21T17:39:48.948Z,26.24
2023-06-21T17:42:16.463Z,26.36
2023-06-21T17:44:43.583Z,26.37
2023-06-21T17:47:11.693Z,26.23
2023-06-21T17:49:38.803Z,26.38
2023-06-21T17:52:06.170Z,26.19
2023-06-21T17:54:33.899Z,26.29
2023-06-21T17:57:01.235Z,26.01
2023-06-21T17:59:28.216Z,26.05
2023-06-21T18:01:56.270Z,26.05
2023-06-21T18:04:23.473Z,26.09
2023-06-21T18:06:50.628Z,25.99
2023-06-21T18:09:17.639Z,26.16
2023-06-21T18:11:44.973Z,26.02
2023-06-21T18:14:12.019Z,26.06
2023-06-21T18:16:39.941Z,25.95
2023-06-21T18:19:06.836Z,26.18
2023-06-21T18:21:33.824Z,26.16
2023-06-21T18:24:09.083Z,26.14
2023-06-21T18:26:36.297Z,26.13
2023-06-21T18:29:03.433Z,26.00
2023-06-21T18:31:30.280Z,26.10
2023-06-21T18:33:57.110Z,26.13
2023-06-21T18:36:24.116Z,26.15
2023-06-21T18:38:50.947Z,26.10
2023-06-21T18:41:17.805Z,25.93
2023-06-21T18:43:47.698Z,25.87
2023-06-21T18:46:14.525Z,25.97
2023-06-21T18:48:41.704Z,25.95
2023-06-21T18:51:08.998Z,25.96
2023-06-21T18:53:35.840Z,25.94
2023-06-21T18:56:02.807Z,25.83
2023-06-21T18:58:29.669Z,25.71
2023-06-21T19:00:56.560Z,25.70
2023-06-21T19:03:23.540Z,25.86
2023-06-21T19:05:50.430Z,25.76
2023-06-21T19:08:17.282Z,25.79
2023-06-21T19:10:44.102Z,25.80
2023-06-21T19:13:12.028Z,25.58
2023-06-21T19:15:38.886Z,25.69
2023-06-21T19:18:05.826Z,25.60
2023-06-21T19:20:32.664Z,25.67
2023-06-21T19:22:59.495Z,25.69
2023-06-21T19:25:26.336Z,25.62
2023-06-21T19:27:53.149Z,25.59
2023-06-21T19:30:20.183Z,25.54
2023-06-21T19:32:47.055Z,25.54
2023-06-21T19:35:20.500Z,25.61
2023-06-21T19:37:47.673Z,25.64
2023-06-21T19:40:15.046Z,25.60
2023-06-21T19:42:46.099Z,25.51
2023-06-21T19:45:13.939Z,25.49
2023-06-21T19:47:41.267Z,25.75
2023-06-21T19:50:10.156Z,26.00
2023-06-21T19:52:37.584Z,26.14
2023-06-21T19:55:04.920Z,26.20
2023-06-21T19:57:32.323Z,26.25
2023-06-21T19:59:59.682Z,26.28
2023-06-21T20:02:27.027Z,26.30
2023-06-21T20:04:57.813Z,26.32
2023-06-21T20:07:25.122Z,26.34
2023-06-21T20:09:52.782Z,26.34
2023-06-21T20:12:20.135Z,26.33
2023-06-21T20:14:46.947Z,26.33
2023-06-21T20:17:13.757Z,26.35
2023-06-21T20:19:40.622Z,26.36
2023-06-21T20:22:07.759Z,26.33
2023-06-21T20:24:34.724Z,26.34
2023-06-21T20:27:01.541Z,26.36
2023-06-21T20:29:28.380Z,26.40
2023-06-21T20:31:55.481Z,26.40
2023-06-21T20:34:22.393Z,26.35
2023-06-21T20:36:49.995Z,26.39
2023-06-21T20:39:18.547Z,26.41
2023-06-21T20:41:46.864Z,26.40
2023-06-21T20:44:15.707Z,26.40
2023-06-21T20:46:44.228Z,26.41
2023-06-21T20:49:11.730Z,26.40
2023-06-21T20:51:39.168Z,26.42
2023-06-21T20:54:13.025Z,26.43
2023-06-21T20:56:40.764Z,26.43
2023-06-21T20:59:08.250Z,26.41
2023-06-21T21:01:39.909Z,26.42
2023-06-21T21:04:08.691Z,26.44
2023-06-21T21:06:36.572Z,26.45
2023-06-21T21:09:03.949Z,26.44
2023-06-21T21:11:30.859Z,26.45
2023-06-21T21:13:57.808Z,26.47
2023-06-21T21:16:24.610Z,26.46
2023-06-21T21:18:51.635Z,26.45
2023-06-21T21:21:18.510Z,26.45
2023-06-21T21:23:45.332Z,26.47
2023-06-21T21:26:12.115Z,26.47
2023-06-21T21:28:38.940Z,26.45
2023-06-21T21:31:06.162Z,26.44
2023-06-21T21:33:33.245Z,26.44
2023-06-21T21:36:00.229Z,26.45
2023-06-21T21:38:27.085Z,26.43
2023-06-21T21:40:55.800Z,26.43
2023-06-21T21:43:22.658Z,26.43
2023-06-21T21:45:50.118Z,26.41
2023-06-21T21:48:16.933Z,26.40
2023-06-21T21:50:45.624Z,26.39
2023-06-21T21:53:15.278Z,26.39
2023-06-21T21:55:42.835Z,26.39
2023-06-21T21:58:11.228Z,26.41
2023-06-21T22:00:38.102Z,26.39
2023-06-21T22:03:05.144Z,26.39
2023-06-21T22:05:32.058Z,26.39
2023-06-21T22:07:58.828Z,26.40
2023-06-21T22:10:37.696Z,26.38
2023-06-21T22:13:05.822Z,26.41
2023-06-21T22:15:32.589Z,26.38
2023-06-21T22:17:59.447Z,26.38
2023-06-21T22:20:26.449Z,26.37
2023-06-21T22:22:53.422Z,26.38
2023-06-21T22:25:20.367Z,26.38
2023-06-21T22:27:47.208Z,26.36
2023-06-21T22:30:14.046Z,26.33
2023-06-21T22:32:40.846Z,26.34
2023-06-21T22:35:08.000Z,26.34
2023-06-21T22:37:37.408Z,26.32
2023-06-21T22:40:06.354Z,26.32
2023-06-21T22:42:33.325Z,26.30
2023-06-21T22:45:00.396Z,26.31
2023-06-21T22:47:27.274Z,26.30
2023-06-21T22:49:57.013Z,26.32
2023-06-21T22:52:24.901Z,26.32
2023-06-21T22:54:51.730Z,26.30
2023-06-21T22:57:18.873Z,26.28
2023-06-21T22:59:45.667Z,26.28
2023-06-21T23:02:12.948Z,26.29
2023-06-21T23:04:39.999Z,26.29
2023-06-21T23:07:07.609Z,26.30
2023-06-21T23:09:34.442Z,26.30
2023-06-21T23:12:01.250Z,26.29
2023-06-21T23:14:29.302Z,26.26
2023-06-21T23:16:56.156Z,26.26
2023-06-21T23:19:23.039Z,26.25
2023-06-21T23:21:49.788Z,26.26
2023-06-21T23:24:16.634Z,26.24
2023-06-21T23:26:43.427Z,26.24
2023-06-21T23:29:12.569Z,26.24
2023-06-21T23:31:40.122Z,26.25
2023-06-21T23:34:07.157Z,26.25
2023-06-21T23:36:34.875Z,26.25
2023-06-21T23:39:02.277Z,26.23
2023-06-21T23:41:32.125Z,26.21
2023-06-21T23:44:00.221Z,26.19
2023-06-21T23:46:33.072Z,26.20
2023-06-21T23:49:02.573Z,26.19
2023-06-21T23:51:33.370Z,26.17
2023-06-21T23:54:00.375Z,26.14
2023-06-21T23:56:27.997Z,26.12
2023-06-21T23:58:55.385Z,26.12
